ELY371 LLBG-LPPT
Flight info
| Callsign | ELY371 |
|---|---|
| Flight time | N/A |
| Altitude | 32000 |
| Route | SUVAS L53 ANIDE DCT TRL DCT RUTOM/N0458F340 DCT CRN DCT DIRED DCT RUVIP DCT EPIKU DCT GINOX DCT KIFMI DCT ELVOP DCT MUREN/N0456F350 M601 BCN DCT ANTON DCT XIKEN DCT OSLAP DCT SALAS DCT RAMON DCT NEXAS DCT DISVU DCT ADUXO N975 PALIO DCT AKOKI DCT GOTOR DCT TLD DCT NATPA DCT MELON DCT CCS DCT ELVAR DCT UPULO |
| Aircraft | B739/M-SDE2E3FGHIRWXY/LB1 |
Departure
| Time | 2026-05-04 16:47 |
|---|---|
| Airport | Ben Gurion International Airport (LLBG) |
Arrival
| Time | N/A |
|---|---|
| Airport | Lisbon Humberto Delgado Airport (LPPT) |
| Time | Latitude | Longitude | Altitude | Speed | Heading |
|---|---|---|---|---|---|
| 2026-05-04 16:31 | 32.00118 | 34.87498 | 119 ft | 0 kts | 301° |
| 2026-05-04 16:36 | 32.00076 | 34.87536 | 120 ft | 0 kts | 7° |
| 2026-05-04 16:37 | 32.00069 | 34.87549 | 119 ft | 0 kts | 28° |
| 2026-05-04 16:38 | 32.00068 | 34.87549 | 119 ft | 0 kts | 28° |
| 2026-05-04 16:40 | 32.00068 | 34.87548 | 119 ft | 0 kts | 28° |
| 2026-05-04 16:41 | 32.00191 | 34.87630 | 118 ft | 13 kts | 31° |
| 2026-05-04 16:41 | 32.00418 | 34.87793 | 118 ft | 12 kts | 32° |
| 2026-05-04 16:42 | 32.00649 | 34.87961 | 116 ft | 16 kts | 29° |
| 2026-05-04 16:43 | 32.00876 | 34.88124 | 116 ft | 19 kts | 32° |
| 2026-05-04 16:43 | 32.01127 | 34.88307 | 117 ft | 23 kts | 32° |
| 2026-05-04 16:43 | 32.01261 | 34.88412 | 116 ft | 23 kts | 37° |
| 2026-05-04 16:44 | 32.01537 | 34.89108 | 117 ft | 25 kts | 80° |
| 2026-05-04 16:45 | 32.01596 | 34.89489 | 118 ft | 23 kts | 79° |
| 2026-05-04 16:46 | 32.01836 | 34.89663 | 117 ft | 22 kts | 259° |
| 2026-05-04 16:46 | 32.01630 | 34.88347 | 117 ft | 136 kts | 259° |
| 2026-05-04 16:47 | 32.01207 | 34.85696 | 684 ft | 180 kts | 261° |
| 2026-05-04 16:47 | 32.00732 | 34.82767 | 1896 ft | 182 kts | 261° |
| 2026-05-04 16:48 | 31.99746 | 34.78170 | 2892 ft | 212 kts | 257° |
| 2026-05-04 16:48 | 31.99343 | 34.76414 | 3040 ft | 231 kts | 257° |
| 2026-05-04 16:49 | 31.99847 | 34.72615 | 3991 ft | 242 kts | 289° |
| 2026-05-04 16:49 | 32.01004 | 34.68915 | 5344 ft | 246 kts | 288° |
| 2026-05-04 16:50 | 32.02188 | 34.65117 | 6655 ft | 249 kts | 287° |
| 2026-05-04 16:50 | 32.02822 | 34.61135 | 7858 ft | 250 kts | 271° |
| 2026-05-04 16:51 | 32.03007 | 34.57010 | 9165 ft | 255 kts | 272° |
| 2026-05-04 16:51 | 32.03115 | 34.54919 | 9911 ft | 257 kts | 272° |
| 2026-05-04 16:51 | 32.03872 | 34.50837 | 11436 ft | 247 kts | 285° |
| 2026-05-04 16:52 | 32.04953 | 34.46863 | 12102 ft | 270 kts | 285° |
| 2026-05-04 16:52 | 32.05529 | 34.44692 | 12247 ft | 286 kts | 284° |
| 2026-05-04 16:53 | 32.06759 | 34.39949 | 12520 ft | 318 kts | 284° |
| 2026-05-04 16:53 | 32.08805 | 34.32256 | 14047 ft | 325 kts | 287° |
| 2026-05-04 16:54 | 32.09424 | 34.30186 | 14841 ft | 314 kts | 287° |
| 2026-05-04 16:55 | 32.12083 | 34.20226 | 16298 ft | 337 kts | 281° |
| 2026-05-04 16:55 | 32.13255 | 34.14665 | 16500 ft | 360 kts | 282° |
| 2026-05-04 16:56 | 32.14595 | 34.08922 | 17438 ft | 359 kts | 283° |
| 2026-05-04 16:56 | 32.16616 | 34.00505 | 19128 ft | 358 kts | 283° |
| 2026-05-04 16:57 | 32.17495 | 33.97738 | 19476 ft | 364 kts | 290° |
| 2026-05-04 16:57 | 32.19751 | 33.92331 | 20136 ft | 369 kts | 291° |
| 2026-05-04 16:58 | 32.23170 | 33.84132 | 21159 ft | 373 kts | 291° |
| 2026-05-04 16:58 | 32.24315 | 33.81368 | 21469 ft | 375 kts | 291° |
| 2026-05-04 16:59 | 32.26611 | 33.75803 | 22092 ft | 378 kts | 290° |
| 2026-05-04 17:00 | 32.31230 | 33.64570 | 23314 ft | 384 kts | 290° |
| 2026-05-04 17:00 | 32.34747 | 33.55993 | 24092 ft | 388 kts | 290° |
| 2026-05-04 17:01 | 32.37106 | 33.50232 | 24595 ft | 390 kts | 290° |
| 2026-05-04 17:01 | 32.39480 | 33.44426 | 25063 ft | 393 kts | 290° |
| 2026-05-04 17:02 | 32.41863 | 33.38584 | 25529 ft | 395 kts | 290° |
| 2026-05-04 17:02 | 32.44257 | 33.32709 | 25965 ft | 397 kts | 290° |
| 2026-05-04 17:03 | 32.45455 | 33.29763 | 26283 ft | 396 kts | 290° |
| 2026-05-04 17:03 | 32.46646 | 33.26835 | 26651 ft | 393 kts | 290° |
| 2026-05-04 17:03 | 32.49008 | 33.21016 | 27273 ft | 392 kts | 290° |
| 2026-05-04 17:04 | 32.51361 | 33.15211 | 27934 ft | 389 kts | 290° |
| 2026-05-04 17:04 | 32.53674 | 33.09495 | 28685 ft | 385 kts | 290° |
| 2026-05-04 17:05 | 32.55981 | 33.03782 | 29284 ft | 384 kts | 290° |
| 2026-05-04 17:05 | 32.58277 | 32.98084 | 29966 ft | 381 kts | 290° |
| 2026-05-04 17:06 | 32.60553 | 32.92432 | 30487 ft | 380 kts | 290° |
| 2026-05-04 17:06 | 32.61691 | 32.89600 | 30680 ft | 380 kts | 290° |
| 2026-05-04 17:07 | 32.63962 | 32.83940 | 31129 ft | 380 kts | 290° |
| 2026-05-04 17:07 | 32.64719 | 32.82054 | 31261 ft | 380 kts | 290° |
| 2026-05-04 17:07 | 32.66245 | 32.78253 | 31557 ft | 380 kts | 290° |
| 2026-05-04 17:07 | 32.67361 | 32.75465 | 31781 ft | 379 kts | 290° |
| 2026-05-04 17:08 | 32.68491 | 32.72641 | 31977 ft | 379 kts | 290° |
| 2026-05-04 17:08 | 32.70756 | 32.66968 | 32017 ft | 382 kts | 290° |
| 2026-05-04 17:09 | 32.73042 | 32.61237 | 32028 ft | 385 kts | 290° |
| 2026-05-04 17:09 | 32.75343 | 32.55457 | 32016 ft | 388 kts | 290° |
| 2026-05-04 17:10 | 32.81120 | 32.40927 | 32006 ft | 388 kts | 291° |
| 2026-05-04 17:11 | 32.84002 | 32.35481 | 32017 ft | 394 kts | 298° |
| 2026-05-04 17:12 | 32.88705 | 32.27438 | 32011 ft | 396 kts | 298° |
| 2026-05-04 17:13 | 32.96533 | 32.13907 | 32008 ft | 397 kts | 298° |
| 2026-05-04 17:14 | 33.02746 | 32.03120 | 32038 ft | 397 kts | 298° |
| 2026-05-04 17:15 | 33.07419 | 31.94983 | 32006 ft | 397 kts | 298° |
| 2026-05-04 17:16 | 33.13651 | 31.84111 | 32006 ft | 396 kts | 298° |
| 2026-05-04 17:17 | 33.19864 | 31.73228 | 31999 ft | 397 kts | 299° |
| 2026-05-04 17:18 | 33.26046 | 31.62378 | 31994 ft | 393 kts | 298° |
| 2026-05-04 17:19 | 33.32199 | 31.51559 | 32011 ft | 394 kts | 299° |
| 2026-05-04 17:20 | 33.38333 | 31.40738 | 31994 ft | 392 kts | 299° |
| 2026-05-04 17:20 | 33.42887 | 31.32668 | 32003 ft | 391 kts | 299° |
| 2026-05-04 17:21 | 33.48964 | 31.21877 | 31997 ft | 392 kts | 299° |
| 2026-05-04 17:22 | 33.52002 | 31.16479 | 31995 ft | 390 kts | 300° |
| 2026-05-04 17:23 | 33.58049 | 31.05713 | 31993 ft | 388 kts | 299° |
| 2026-05-04 17:24 | 33.62062 | 30.98552 | 32000 ft | 389 kts | 299° |
| 2026-05-04 17:25 | 33.68073 | 30.87753 | 31990 ft | 392 kts | 300° |
| 2026-05-04 17:26 | 33.74154 | 30.76828 | 31996 ft | 394 kts | 300° |
| 2026-05-04 17:27 | 33.81793 | 30.63095 | 31994 ft | 394 kts | 300° |
| 2026-05-04 17:28 | 33.87824 | 30.52114 | 31981 ft | 391 kts | 299° |
| 2026-05-04 17:29 | 33.96897 | 30.35738 | 31999 ft | 393 kts | 300° |
| 2026-05-04 17:31 | 34.04434 | 30.21841 | 31984 ft | 399 kts | 300° |
| 2026-05-04 17:32 | 34.12151 | 30.07846 | 31983 ft | 397 kts | 300° |
| 2026-05-04 17:33 | 34.18095 | 29.96625 | 31998 ft | 399 kts | 298° |
| 2026-05-04 17:34 | 34.23572 | 29.84906 | 31997 ft | 403 kts | 297° |
| 2026-05-04 17:35 | 34.30447 | 29.70172 | 32007 ft | 401 kts | 297° |
| 2026-05-04 17:36 | 34.33222 | 29.64315 | 31986 ft | 401 kts | 297° |
| 2026-05-04 17:36 | 34.35955 | 29.58434 | 31994 ft | 400 kts | 297° |
| 2026-05-04 17:37 | 34.38673 | 29.52570 | 32006 ft | 399 kts | 297° |
| 2026-05-04 17:37 | 34.41402 | 29.46720 | 32002 ft | 401 kts | 298° |
| 2026-05-04 17:38 | 34.44154 | 29.40795 | 31992 ft | 407 kts | 298° |
| 2026-05-04 17:38 | 34.46932 | 29.34817 | 31999 ft | 410 kts | 298° |
| 2026-05-04 17:39 | 34.51125 | 29.25777 | 31993 ft | 410 kts | 298° |
| 2026-05-04 17:39 | 34.53911 | 29.19747 | 31998 ft | 410 kts | 298° |
| 2026-05-04 17:40 | 34.56697 | 29.13714 | 31998 ft | 410 kts | 298° |
| 2026-05-04 17:40 | 34.59483 | 29.07672 | 32012 ft | 411 kts | 298° |
| 2026-05-04 17:41 | 34.62275 | 29.01602 | 32004 ft | 413 kts | 298° |
| 2026-05-04 17:41 | 34.65076 | 28.95505 | 32008 ft | 414 kts | 298° |
| 2026-05-04 17:42 | 34.67879 | 28.89392 | 32013 ft | 415 kts | 298° |
| 2026-05-04 17:42 | 34.70686 | 28.83260 | 32016 ft | 416 kts | 298° |
| 2026-05-04 17:43 | 34.73494 | 28.77111 | 32019 ft | 417 kts | 298° |
| 2026-05-04 17:43 | 34.76306 | 28.70942 | 32020 ft | 417 kts | 298° |
| 2026-05-04 17:44 | 34.79117 | 28.64767 | 32014 ft | 417 kts | 299° |
| 2026-05-04 17:44 | 34.81927 | 28.58585 | 32019 ft | 417 kts | 299° |
| 2026-05-04 17:45 | 34.84732 | 28.52401 | 32023 ft | 417 kts | 299° |
| 2026-05-04 17:45 | 34.87532 | 28.46217 | 32018 ft | 417 kts | 299° |
| 2026-05-04 17:46 | 34.90327 | 28.40034 | 32029 ft | 417 kts | 298° |
| 2026-05-04 17:46 | 34.93119 | 28.33843 | 32019 ft | 417 kts | 299° |
| 2026-05-04 17:47 | 34.95907 | 28.27650 | 32036 ft | 417 kts | 299° |
| 2026-05-04 17:47 | 34.98693 | 28.21452 | 32033 ft | 417 kts | 299° |
| 2026-05-04 17:48 | 35.01480 | 28.15241 | 32041 ft | 418 kts | 299° |
| 2026-05-04 17:48 | 35.04268 | 28.09016 | 32037 ft | 418 kts | 299° |
| 2026-05-04 17:49 | 35.07038 | 28.02819 | 32043 ft | 419 kts | 299° |
| 2026-05-04 17:49 | 35.09823 | 27.96577 | 32046 ft | 419 kts | 299° |
| 2026-05-04 17:50 | 35.12609 | 27.90324 | 32045 ft | 419 kts | 299° |
| 2026-05-04 17:50 | 35.15391 | 27.84065 | 32043 ft | 419 kts | 299° |
| 2026-05-04 17:51 | 35.18169 | 27.77806 | 32050 ft | 419 kts | 299° |
| 2026-05-04 17:51 | 35.20943 | 27.71544 | 32053 ft | 419 kts | 299° |
| 2026-05-04 17:52 | 35.23714 | 27.65278 | 32055 ft | 419 kts | 299° |
| 2026-05-04 17:52 | 35.26479 | 27.59011 | 32059 ft | 418 kts | 299° |
| 2026-05-04 17:53 | 35.29239 | 27.52745 | 32060 ft | 418 kts | 299° |
| 2026-05-04 17:53 | 35.31994 | 27.46482 | 32050 ft | 418 kts | 299° |
| 2026-05-04 17:54 | 35.34743 | 27.40217 | 32066 ft | 417 kts | 299° |
| 2026-05-04 17:54 | 35.37485 | 27.33956 | 32072 ft | 417 kts | 299° |
| 2026-05-04 17:55 | 35.40104 | 27.27968 | 32071 ft | 417 kts | 299° |
| 2026-05-04 17:55 | 35.42774 | 27.21849 | 32080 ft | 418 kts | 300° |
| 2026-05-04 17:56 | 35.45526 | 27.15534 | 32048 ft | 422 kts | 300° |
| 2026-05-04 17:56 | 35.48304 | 27.09146 | 32061 ft | 426 kts | 300° |
| 2026-05-04 17:57 | 35.51098 | 27.02711 | 32054 ft | 428 kts | 300° |
| 2026-05-04 17:57 | 35.53896 | 26.96249 | 32060 ft | 429 kts | 300° |
| 2026-05-04 17:58 | 35.56695 | 26.89775 | 32067 ft | 429 kts | 300° |
| 2026-05-04 17:58 | 35.59489 | 26.83301 | 32074 ft | 429 kts | 300° |
| 2026-05-04 17:59 | 35.62275 | 26.76831 | 32088 ft | 428 kts | 300° |
| 2026-05-04 18:00 | 35.66440 | 26.67136 | 32088 ft | 427 kts | 300° |
| 2026-05-04 18:00 | 35.69208 | 26.60681 | 32098 ft | 426 kts | 300° |
| 2026-05-04 18:01 | 35.71967 | 26.54230 | 32096 ft | 426 kts | 300° |
| 2026-05-04 18:01 | 35.74716 | 26.47793 | 32096 ft | 424 kts | 300° |
| 2026-05-04 18:02 | 35.78818 | 26.38164 | 32099 ft | 422 kts | 300° |
| 2026-05-04 18:02 | 35.81535 | 26.31764 | 32103 ft | 421 kts | 300° |
| 2026-05-04 18:03 | 35.84246 | 26.25373 | 32075 ft | 420 kts | 300° |
| 2026-05-04 18:03 | 35.86942 | 26.19001 | 32098 ft | 418 kts | 300° |
| 2026-05-04 18:04 | 35.89624 | 26.12652 | 32108 ft | 417 kts | 300° |
| 2026-05-04 18:05 | 35.93612 | 26.03189 | 32125 ft | 416 kts | 300° |
| 2026-05-04 18:05 | 35.96287 | 25.96828 | 32123 ft | 420 kts | 300° |
| 2026-05-04 18:06 | 36.00337 | 25.87172 | 32108 ft | 423 kts | 300° |
| 2026-05-04 18:06 | 36.03032 | 25.80727 | 32110 ft | 421 kts | 300° |
| 2026-05-04 18:07 | 36.05733 | 25.74258 | 32110 ft | 420 kts | 300° |
| 2026-05-04 18:07 | 36.08387 | 25.67893 | 32118 ft | 420 kts | 300° |
| 2026-05-04 18:08 | 36.11068 | 25.61444 | 32113 ft | 423 kts | 300° |
| 2026-05-04 18:08 | 36.13738 | 25.55010 | 32112 ft | 417 kts | 300° |
| 2026-05-04 18:09 | 36.18998 | 25.42305 | 32129 ft | 414 kts | 300° |
| 2026-05-04 18:10 | 36.21614 | 25.35961 | 32132 ft | 414 kts | 300° |
| 2026-05-04 18:10 | 36.24228 | 25.29613 | 32110 ft | 413 kts | 300° |
| 2026-05-04 18:11 | 36.26835 | 25.23275 | 32109 ft | 412 kts | 300° |
| 2026-05-04 18:11 | 36.29434 | 25.16940 | 32111 ft | 412 kts | 300° |
| 2026-05-04 18:12 | 36.32007 | 25.10654 | 32121 ft | 411 kts | 300° |
| 2026-05-04 18:12 | 36.34448 | 25.04681 | 32134 ft | 411 kts | 300° |
| 2026-05-04 18:13 | 36.36613 | 24.99376 | 32116 ft | 410 kts | 301° |
| 2026-05-04 18:14 | 36.40268 | 24.90389 | 32114 ft | 399 kts | 301° |
| 2026-05-04 18:14 | 36.42622 | 24.84597 | 32129 ft | 399 kts | 301° |